Terminal Aerodrome Forecast
Issued by NWS

Home | Current Version | Previous Version | Graphics & Text | Print | Product List | Glossary On
Versions: 1 2 3 4 5 6 7 8 9 10 11 12 13 14 15 16 17 18 19 20 21
000
FTUS43 KMPX 192300
TAFAXN
TAF
KAXN 192339Z 2000/2024 32007KT P6SM FEW060
     FM200200 VRB02KT P6SM SKC
     FM200600 12003KT 4SM BR SCT003
      TEMPO 2008/2012 1SM BR BKN002
     FM201400 14007KT P6SM SCT250
     FM201700 15011KT P6SM SCT050 BKN250=

USA.gov is the U.S. government's official web portal to all federal, state and local government web resources and services.